Time;durP1;ratioP1;P1;durP2;ratioP2;P2;SDS_P1;SDS_P2;PMS_P1;PMS_P2;Temp;Humidity;BMP_temperature;BMP_pressure;BME280_temperature;BME280_humidity;BME280_pressure;Samples;Min_cycle;Max_cycle;Signal;HPM_P1;HPM_P2
2021/09/03 00:01:49;;;;;;;11.68;6.40;;;;;;;;;;5028093;28;20036;-81
2021/09/03 00:04:15;;;;;;;11.75;7.35;;;;;;;;;;5015083;28;20025;-81
2021/09/03 00:06:41;;;;;;;12.10;6.85;;;;;;;;;;5016838;28;20044;-82
2021/09/03 00:09:07;;;;;;;12.73;7.30;;;;;;;;;;5028077;28;20022;-78
2021/09/03 00:11:33;;;;;;;10.18;6.80;;;16.80;99.90;;;;;;5036461;28;20033;-82
2021/09/03 00:13:59;;;;;;;10.18;6.40;;;16.80;99.90;;;;;;5014436;28;20483;-82
2021/09/03 00:16:24;;;;;;;9.75;6.63;;;16.70;99.90;;;;;;5016911;28;20025;-83
2021/09/03 00:18:50;;;;;;;9.73;6.00;;;;;;;;;;5015698;28;20188;-81
2021/09/03 00:21:16;;;;;;;10.68;6.32;;;;;;;;;;5011508;28;20076;-83
2021/09/03 00:23:42;;;;;;;10.63;6.55;;;;;;;;;;5015709;28;20021;-80
2021/09/03 00:26:08;;;;;;;11.32;6.80;;;;;;;;;;5009963;28;20109;-82
2021/09/03 00:28:34;;;;;;;10.15;6.10;;;;;;;;;;5014298;28;20111;-81
2021/09/03 00:31:00;;;;;;;11.32;6.10;;;;;;;;;;5018652;28;20474;-82
2021/09/03 00:33:26;;;;;;;9.60;5.78;;;;;;;;;;5023147;28;20033;-82
2021/09/03 00:35:52;;;;;;;12.25;6.82;;;;;;;;;;5028406;28;20065;-80
2021/09/03 00:38:18;;;;;;;10.90;5.88;;;;;;;;;;5012456;28;20029;-82
2021/09/03 00:40:44;;;;;;;11.43;6.30;;;;;;;;;;5010491;28;20132;-79
2021/09/03 00:43:10;;;;;;;11.07;6.25;;;;;;;;;;5024577;28;20021;-82
2021/09/03 00:45:36;;;;;;;10.23;6.15;;;;;;;;;;5017735;28;20036;-80
2021/09/03 00:48:02;;;;;;;10.50;6.10;;;;;;;;;;5026960;28;20052;-79
2021/09/03 00:50:28;;;;;;;9.45;6.28;;;;;;;;;;5030368;28;20053;-80
2021/09/03 00:52:54;;;;;;;10.35;6.25;;;;;;;;;;5012461;28;20072;-81
2021/09/03 00:55:20;;;;;;;10.70;6.80;;;;;;;;;;5010535;28;20482;-78
2021/09/03 00:57:46;;;;;;;9.07;6.13;;;;;;;;;;5027894;28;20034;-79
2021/09/03 01:00:12;;;;;;;8.65;5.88;;;16.40;99.90;;;;;;5027614;28;20103;-81
2021/09/03 01:02:38;;;;;;;10.48;5.88;;;16.40;99.90;;;;;;5015807;28;20029;-81
2021/09/03 01:05:05;;;;;;;10.30;5.60;;;;;;;;;;5022911;28;20028;-82
2021/09/03 01:07:31;;;;;;;9.13;5.45;;;;;;;;;;5016831;28;20056;-82
2021/09/03 01:09:56;;;;;;;12.93;6.22;;;16.30;99.90;;;;;;5022081;28;20030;-81
2021/09/03 01:12:22;;;;;;;10.65;6.68;;;;;;;;;;5017229;28;20116;-81
2021/09/03 01:14:48;;;;;;;10.50;6.50;;;16.20;99.90;;;;;;5015674;28;20410;-83
2021/09/03 01:17:14;;;;;;;10.10;6.35;;;;;;;;;;5017336;28;20096;-82
2021/09/03 01:19:39;;;;;;;8.88;6.15;;;16.20;99.90;;;;;;5035029;28;20474;-83
2021/09/03 01:22:05;;;;;;;9.30;6.43;;;16.10;99.90;;;;;;5010127;28;20037;-81
2021/09/03 01:24:31;;;;;;;10.48;6.95;;;;;;;;;;5018885;28;20065;-81
2021/09/03 01:26:57;;;;;;;10.05;6.55;;;;;;;;;;5017917;28;20029;-83
2021/09/03 01:29:23;;;;;;;10.32;6.85;;;;;;;;;;5034712;28;20033;-82
2021/09/03 01:31:49;;;;;;;11.20;6.95;;;16.10;99.90;;;;;;5031466;28;20021;-80
2021/09/03 01:34:15;;;;;;;12.10;7.22;;;;;;;;;;5017024;28;20116;-80
2021/09/03 01:36:41;;;;;;;12.82;6.80;;;;;;;;;;5015056;28;20026;-81
2021/09/03 01:39:07;;;;;;;12.55;7.00;;;;;;;;;;5005144;28;20443;-77
2021/09/03 01:41:33;;;;;;;10.02;6.53;;;;;;;;;;5013407;28;20029;-79
2021/09/03 01:44:00;;;;;;;9.88;7.05;;;;;;;;;;5036101;28;20026;-79
2021/09/03 01:46:25;;;;;;;13.60;7.45;;;;;;;;;;5006873;28;20690;-80
2021/09/03 01:48:51;;;;;;;15.88;8.43;;;;;;;;;;5015396;28;20030;-81
2021/09/03 01:51:17;;;;;;;9.75;7.10;;;;;;;;;;5018345;28;20037;-81
2021/09/03 01:53:43;;;;;;;10.05;6.65;;;15.90;99.90;;;;;;5019299;28;20037;-80
2021/09/03 01:56:09;;;;;;;10.43;7.00;;;15.80;99.90;;;;;;5034602;28;20057;-80
2021/09/03 01:58:34;;;;;;;11.82;6.88;;;;;;;;;;5014913;28;20115;-80
2021/09/03 02:01:00;;;;;;;10.90;6.82;;;15.80;99.90;;;;;;5014747;28;20029;-79
2021/09/03 02:03:26;;;;;;;11.48;6.57;;;;;;;;;;5017744;28;20254;-81
2021/09/03 02:05:52;;;;;;;11.02;7.05;;;;;;;;;;5016772;28;20092;-80
2021/09/03 02:08:18;;;;;;;11.48;6.43;;;15.70;99.90;;;;;;5016388;28;20030;-81
2021/09/03 02:10:43;;;;;;;11.27;7.30;;;15.60;99.90;;;;;;5009911;28;20060;-81
2021/09/03 02:13:09;;;;;;;13.20;7.10;;;;;;;;;;5013967;28;20037;-81
2021/09/03 02:15:35;;;;;;;11.13;7.47;;;;;;;;;;5019302;28;20075;-76
2021/09/03 02:18:01;;;;;;;10.73;7.00;;;15.60;99.90;;;;;;5034094;28;20041;-83
2021/09/03 02:20:27;;;;;;;10.85;6.75;;;;;;;;;;5015675;28;20022;-80
2021/09/03 02:22:52;;;;;;;11.88;6.93;;;15.60;99.90;;;;;;5034209;28;20084;-81
2021/09/03 02:25:18;;;;;;;15.45;7.18;;;15.60;99.90;;;;;;5015787;28;20037;-79
2021/09/03 02:27:44;;;;;;;13.30;6.70;;;15.50;99.90;;;;;;5015718;28;20112;-82
2021/09/03 02:30:10;;;;;;;9.85;6.35;;;15.50;99.90;;;;;;5015138;28;20021;-78
2021/09/03 02:32:36;;;;;;;11.80;6.97;;;;;;;;;;5030216;28;20045;-80
2021/09/03 02:35:02;;;;;;;11.23;6.78;;;;;;;;;;5010168;28;20038;-80
2021/09/03 02:37:27;;;;;;;12.85;6.97;;;;;;;;;;5012287;28;20069;-81
2021/09/03 02:39:53;;;;;;;9.73;6.70;;;;;;;;;;5039853;28;20033;-81
2021/09/03 02:42:19;;;;;;;12.95;7.72;;;;;;;;;;5019465;28;20033;-82
2021/09/03 02:44:45;;;;;;;11.15;7.00;;;15.40;99.90;;;;;;5021663;28;20096;-80
2021/09/03 02:47:11;;;;;;;14.23;7.65;;;15.40;99.90;;;;;;5019299;28;20658;-81
2021/09/03 02:49:38;;;;;;;11.70;7.18;;;;;;;;;;5018742;28;20025;-82
2021/09/03 02:52:04;;;;;;;11.85;6.50;;;15.30;99.90;;;;;;5018692;28;20029;-78
2021/09/03 02:54:29;;;;;;;12.32;7.40;;;15.20;99.90;;;;;;5019441;28;20048;-80
2021/09/03 02:56:55;;;;;;;12.73;7.50;;;;;;;;;;5019849;28;20059;-78
2021/09/03 02:59:21;;;;;;;10.95;6.85;;;;;;;;;;5019869;28;20080;-79
2021/09/03 03:01:47;;;;;;;12.40;6.93;;;15.20;99.90;;;;;;5018647;28;20479;-80
2021/09/03 03:04:12;;;;;;;13.48;7.05;;;15.20;99.90;;;;;;5012798;28;20446;-80
2021/09/03 03:06:38;;;;;;;11.50;7.05;;;;;;;;;;5016112;28;20053;-79
2021/09/03 03:09:04;;;;;;;12.63;6.90;;;;;;;;;;5019865;28;20047;-80
2021/09/03 03:11:30;;;;;;;10.70;6.90;;;;;;;;;;5033091;28;20029;-81
2021/09/03 03:14:03;;;;;;;11.25;6.82;;;;;;;;;;5020014;28;20032;-80
2021/09/03 03:16:28;;;;;;;10.88;7.03;;;15.20;99.90;;;;;;5031866;28;20062;-82
2021/09/03 03:18:54;;;;;;;11.30;7.03;;;;;;;;;;5018397;28;20030;-78
2021/09/03 03:21:20;;;;;;;11.70;7.43;;;;;;;;;;5020636;28;20049;-81
2021/09/03 03:23:46;;;;;;;12.40;7.40;;;15.10;99.90;;;;;;5013012;28;20028;-80
2021/09/03 03:26:11;;;;;;;12.05;7.85;;;15.10;99.90;;;;;;5035162;28;20810;-79
2021/09/03 03:28:37;;;;;;;13.00;7.32;;;14.60;99.90;;;;;;5040065;28;20038;-81
2021/09/03 03:31:03;;;;;;;10.38;6.28;;;;;;;;;;5018316;28;20164;-79
2021/09/03 03:33:29;;;;;;;10.55;6.65;;;;;;;;;;5029902;28;20025;-82
2021/09/03 03:35:55;;;;;;;11.00;6.60;;;;;;;;;;5012993;28;20307;-80
2021/09/03 03:38:21;;;;;;;10.95;6.82;;;;;;;;;;5030721;28;20053;-82
2021/09/03 03:40:47;;;;;;;10.88;6.50;;;;;;;;;;5016701;28;20040;-79
2021/09/03 03:43:13;;;;;;;11.55;6.40;;;;;;;;;;5018210;28;20025;-82
2021/09/03 03:45:38;;;;;;;10.98;6.57;;;15.20;99.90;;;;;;5027579;28;20111;-82
2021/09/03 03:48:04;;;;;;;11.25;6.38;;;18.10;99.90;;;;;;5011678;28;20418;-81
2021/09/03 03:50:31;;;;;;;10.15;6.43;;;;;;;;;;5032288;28;20033;-79
2021/09/03 03:52:57;;;;;;;9.95;6.95;;;;;;;;;;5016087;28;20367;-81
2021/09/03 03:55:22;;;;;;;11.43;6.65;;;15.30;99.90;;;;;;5016760;28;20036;-82
2021/09/03 03:57:48;;;;;;;12.60;6.72;;;15.30;99.90;;;;;;5015238;28;20053;-80
2021/09/03 04:00:14;;;;;;;11.40;6.82;;;15.40;99.90;;;;;;5013937;28;20029;-79
2021/09/03 04:02:40;;;;;;;10.07;6.45;;;15.30;99.90;;;;;;5015440;28;20038;-80
2021/09/03 04:05:06;;;;;;;10.23;6.15;;;15.40;99.90;;;;;;5033078;28;20051;-79
2021/09/03 04:07:31;;;;;;;10.07;6.35;;;15.40;99.90;;;;;;5019028;28;20049;-79
2021/09/03 04:09:57;;;;;;;10.82;6.38;;;15.50;99.90;;;;;;5014222;28;20106;-80
2021/09/03 04:12:22;;;;;;;14.98;6.55;;;15.40;99.90;;;;;;5017622;28;20025;-81
2021/09/03 04:14:48;;;;;;;11.25;6.07;;;;;;;;;;5017666;28;20036;-81
2021/09/03 04:17:14;;;;;;;10.38;6.20;;;;;;;;;;5016509;28;20116;-82
2021/09/03 04:19:40;;;;;;;11.25;7.10;;;;;;;;;;5014589;28;20044;-79
2021/09/03 04:22:06;;;;;;;12.23;6.65;;;;;;;;;;5016143;28;20112;-79
2021/09/03 04:24:32;;;;;;;11.93;6.38;;;15.30;99.90;;;;;;5015709;28;20447;-80
2021/09/03 04:26:59;;;;;;;10.70;6.32;;;15.30;99.90;;;;;;5016673;28;20052;-81
2021/09/03 04:29:25;;;;;;;10.20;6.28;;;;;;;;;;5020318;28;20029;-80
2021/09/03 04:31:51;;;;;;;9.70;6.43;;;15.20;99.90;;;;;;5016215;28;20045;-82
2021/09/03 04:34:17;;;;;;;9.15;6.30;;;17.80;99.90;;;;;;5012899;28;20036;-79
2021/09/03 04:36:42;;;;;;;11.07;6.72;;;15.10;99.90;;;;;;5026010;28;20034;-81
2021/09/03 04:39:08;;;;;;;10.13;6.55;;;;;;;;;;5010756;28;20072;-79
2021/09/03 04:41:34;;;;;;;10.55;6.25;;;;;;;;;;5032808;28;20394;-81
2021/09/03 04:44:00;;;;;;;11.68;6.90;;;15.10;99.90;;;;;;5025946;28;20022;-79
2021/09/03 04:46:25;;;;;;;10.23;6.70;;;15.00;99.90;;;;;;5029631;28;20044;-80
2021/09/03 04:48:51;;;;;;;12.05;6.13;;;15.00;99.90;;;;;;5013129;28;20030;-81
2021/09/03 04:51:17;;;;;;;12.48;6.22;;;15.00;99.90;;;;;;5007081;28;20329;-79
2021/09/03 04:53:42;;;;;;;10.65;6.05;;;15.00;99.90;;;;;;5007185;28;20033;-81
2021/09/03 04:56:08;;;;;;;8.73;5.82;;;;;;;;;;5015074;28;20057;-80
2021/09/03 04:58:34;;;;;;;10.73;6.25;;;;;;;;;;5024689;28;20029;-82
2021/09/03 05:01:00;;;;;;;8.75;5.90;;;15.00;99.90;;;;;;5011738;28;20128;-79
2021/09/03 05:03:25;;;;;;;11.95;6.75;;;14.90;99.90;;;;;;5007561;28;20029;-80
2021/09/03 05:05:51;;;;;;;10.65;7.07;;;14.90;99.90;;;;;;5019125;28;20406;-82
2021/09/03 05:08:16;;;;;;;10.40;6.80;;;15.10;99.90;;;;;;5006906;28;20157;-82
2021/09/03 05:10:42;;;;;;;11.77;6.80;;;;;;;;;;5018603;28;20184;-84
2021/09/03 05:13:08;;;;;;;10.43;6.75;;;14.90;99.90;;;;;;5015193;28;20587;-80
2021/09/03 05:15:37;;;;;;;11.32;6.78;;;14.90;99.90;;;;;;5006787;28;20033;-81
2021/09/03 05:18:03;;;;;;;11.95;6.82;;;14.90;99.90;;;;;;5024127;28;20026;-79
2021/09/03 05:20:29;;;;;;;12.50;6.78;;;;;;;;;;5025254;28;20029;-80
2021/09/03 05:22:55;;;;;;;10.48;6.78;;;15.00;99.90;;;;;;5010522;28;20032;-81
2021/09/03 05:25:20;;;;;;;11.02;7.05;;;15.00;99.90;;;;;;5009584;28;20471;-82
2021/09/03 05:27:46;;;;;;;10.50;6.60;;;15.00;99.90;;;;;;5009964;28;20021;-79
2021/09/03 05:30:14;;;;;;;9.73;6.38;;;15.10;99.90;;;;;;5014099;28;20022;-81
2021/09/03 05:32:40;;;;;;;10.38;6.53;;;15.20;99.90;;;;;;5017954;28;20037;-82
2021/09/03 05:35:07;;;;;;;11.82;7.10;;;15.20;99.90;;;;;;5007149;28;20033;-77
2021/09/03 05:37:33;;;;;;;10.23;6.68;;;15.20;99.90;;;;;;5027870;28;20125;-82
2021/09/03 05:40:00;;;;;;;9.10;6.10;;;15.10;99.90;;;;;;5009799;28;20030;-82
2021/09/03 05:42:26;;;;;;;12.65;7.13;;;15.20;99.90;;;;;;5018804;28;20026;-84
2021/09/03 05:44:51;;;;;;;10.75;6.28;;;15.10;99.90;;;;;;5015052;28;20109;-82
2021/09/03 05:47:17;;;;;;;17.80;7.15;;;15.10;99.90;;;;;;5010908;28;21142;-81
2021/09/03 05:49:42;;;;;;;11.65;7.20;;;17.00;99.90;;;;;;5016340;28;20049;-81
2021/09/03 05:52:08;;;;;;;10.68;6.80;;;15.20;99.90;;;;;;5019509;28;20040;-84
2021/09/03 05:54:34;;;;;;;12.45;6.65;;;;;;;;;;5012510;28;20165;-83
2021/09/03 05:56:59;;;;;;;10.18;6.63;;;15.20;99.90;;;;;;5021616;28;20414;-80
2021/09/03 05:59:25;;;;;;;10.77;6.68;;;16.60;99.90;;;;;;5031016;28;20127;-83
2021/09/03 06:01:51;;;;;;;13.20;7.25;;;15.30;99.90;;;;;;5015323;28;20040;-84
2021/09/03 06:04:16;;;;;;;11.40;6.55;;;17.70;99.90;;;;;;5019634;28;20017;-83
2021/09/03 06:06:42;;;;;;;11.30;7.03;;;15.30;99.90;;;;;;5021086;28;20213;-80
2021/09/03 06:09:07;;;;;;;13.18;7.32;;;15.30;99.90;;;;;;5020267;28;20164;-82
2021/09/03 06:11:33;;;;;;;13.57;7.75;;;16.60;99.90;;;;;;5020736;28;20486;-82
2021/09/03 06:13:59;;;;;;;11.43;7.03;;;15.30;99.90;;;;;;5040660;28;20032;-83
2021/09/03 06:16:25;;;;;;;10.00;6.22;;;15.40;99.90;;;;;;5021614;28;20553;-81
2021/09/03 06:18:51;;;;;;;13.77;7.10;;;15.50;99.90;;;;;;5020303;28;20037;-83
2021/09/03 06:21:16;;;;;;;11.75;7.15;;;15.40;99.90;;;;;;5033783;28;20219;-82
2021/09/03 06:23:42;;;;;;;12.85;7.20;;;15.50;99.90;;;;;;5019825;28;20030;-82
2021/09/03 06:26:08;;;;;;;11.85;6.63;;;15.60;99.90;;;;;;5018009;28;20029;-82
2021/09/03 06:28:34;;;;;;;11.02;7.13;;;15.60;99.90;;;;;;5010725;28;20025;-81
2021/09/03 06:31:00;;;;;;;11.38;6.28;;;15.70;99.90;;;;;;5031159;28;20033;-83
2021/09/03 06:33:25;;;;;;;10.80;6.38;;;16.10;99.90;;;;;;5017595;28;20022;-82
2021/09/03 06:35:51;;;;;;;10.68;6.95;;;;;;;;;;5017869;28;20084;-83
2021/09/03 06:38:17;;;;;;;12.35;7.05;;;16.30;99.90;;;;;;5022365;28;20038;-82
2021/09/03 06:40:42;;;;;;;11.70;6.43;;;17.20;99.90;;;;;;5011467;28;20125;-81
2021/09/03 06:43:08;;;;;;;10.18;6.38;;;16.90;99.90;;;;;;5016659;28;20048;-81
2021/09/03 06:45:34;;;;;;;12.75;6.38;;;16.50;99.90;;;;;;5016218;28;20030;-82
2021/09/03 06:47:59;;;;;;;10.77;6.43;;;16.60;99.90;;;;;;5013309;28;20021;-81
2021/09/03 06:50:25;;;;;;;11.25;6.15;;;18.30;99.90;;;;;;5010311;28;20092;-81
2021/09/03 06:52:50;;;;;;;11.93;6.05;;;16.80;99.90;;;;;;5011052;28;20037;-83
2021/09/03 06:55:16;;;;;;;10.68;6.75;;;17.00;99.90;;;;;;5011743;28;20036;-79
2021/09/03 06:57:42;;;;;;;7.78;5.47;;;17.10;99.90;;;;;;5009903;28;20107;-84
2021/09/03 07:00:09;;;;;;;9.23;5.90;;;17.20;99.90;;;;;;5009592;28;20040;-80
2021/09/03 07:02:35;;;;;;;10.90;5.75;;;17.20;99.90;;;;;;5006722;28;20168;-82
2021/09/03 07:05:01;;;;;;;9.20;5.85;;;17.30;99.90;;;;;;5017711;28;20029;-81
2021/09/03 07:07:27;;;;;;;9.02;5.90;;;17.40;99.90;;;;;;5012448;28;20022;-80
2021/09/03 07:09:53;;;;;;;9.85;6.20;;;17.50;99.90;;;;;;5034656;28;20021;-80
2021/09/03 07:12:19;;;;;;;8.30;5.18;;;17.60;99.90;;;;;;5012765;28;20049;-84
2021/09/03 07:14:45;;;;;;;11.55;5.78;;;17.60;99.90;;;;;;5013867;28;20101;-82
2021/09/03 07:17:11;;;;;;;8.52;5.53;;;17.80;99.90;;;;;;5005688;28;20061;-81
2021/09/03 07:19:36;;;;;;;9.27;5.80;;;17.80;99.90;;;;;;5011100;28;20048;-82
2021/09/03 07:22:06;;;;;;;10.90;5.28;;;19.00;99.90;;;;;;5010034;28;20026;-82
2021/09/03 07:24:32;;;;;;;10.23;6.00;;;18.00;99.90;;;;;;5020152;28;20557;-82
2021/09/03 07:26:59;;;;;;;11.27;5.78;;;18.20;99.40;;;;;;5019002;28;20025;-81
2021/09/03 07:29:25;;;;;;;9.82;5.75;;;;;;;;;;5028215;28;20029;-83
2021/09/03 07:31:50;;;;;;;11.23;5.05;;;18.40;99.40;;;;;;5006909;28;20372;-83
2021/09/03 07:34:16;;;;;;;11.82;5.57;;;18.60;99.00;;;;;;5006112;28;20029;-83
2021/09/03 07:36:42;;;;;;;9.63;5.72;;;18.70;98.80;;;;;;5012760;28;20065;-83
2021/09/03 07:39:07;;;;;;;10.35;5.43;;;18.80;98.70;;;;;;5014796;28;20033;-83
2021/09/03 07:41:33;;;;;;;12.75;6.15;;;18.90;98.00;;;;;;5007757;28;20029;-83
2021/09/03 07:43:59;;;;;;;15.05;6.38;;;;;;;;;;5010287;28;20029;-81
2021/09/03 07:46:25;;;;;;;9.50;5.45;;;19.10;97.80;;;;;;5007262;28;20018;-83
2021/09/03 07:48:50;;;;;;;8.80;5.20;;;19.20;98.00;;;;;;5014079;28;20017;-79
2021/09/03 07:51:16;;;;;;;8.45;5.63;;;19.30;97.50;;;;;;5019130;28;20112;-81
2021/09/03 07:53:42;;;;;;;10.88;5.30;;;19.50;97.50;;;;;;5017893;28;20147;-81
2021/09/03 07:56:08;;;;;;;10.25;5.88;;;;;;;;;;5032978;28;20037;-80
2021/09/03 07:58:35;;;;;;;9.98;5.57;;;19.50;97.10;;;;;;5034860;28;20040;-83
2021/09/03 08:01:01;;;;;;;8.95;5.28;;;19.60;97.10;;;;;;5026178;28;20037;-81
2021/09/03 08:03:27;;;;;;;9.73;5.22;;;19.90;96.70;;;;;;5016258;28;20052;-81
2021/09/03 08:05:53;;;;;;;8.77;5.05;;;19.70;96.50;;;;;;5020110;28;20017;-82
2021/09/03 08:08:19;;;;;;;9.23;5.07;;;19.80;96.80;;;;;;5022958;28;20025;-82
2021/09/03 08:10:45;;;;;;;9.77;5.50;;;19.80;96.50;;;;;;5023444;28;20037;-82
2021/09/03 08:13:12;;;;;;;8.50;5.15;;;19.90;95.90;;;;;;5019972;28;20372;-81
2021/09/03 08:15:38;;;;;;;8.00;4.68;;;20.10;95.40;;;;;;5036444;28;20037;-80
2021/09/03 08:18:04;;;;;;;8.43;4.80;;;20.10;95.60;;;;;;5017905;28;20383;-84
2021/09/03 08:20:30;;;;;;;8.82;5.05;;;20.10;95.60;;;;;;5020160;28;20025;-83
2021/09/03 08:22:55;;;;;;;9.15;5.80;;;20.40;95.50;;;;;;5016321;28;20036;-81
2021/09/03 08:25:22;;;;;;;10.02;5.30;;;20.50;95.70;;;;;;5020369;28;20112;-83
2021/09/03 08:27:50;;;;;;;8.02;4.97;;;20.50;95.00;;;;;;5018651;28;20462;-84
2021/09/03 08:30:16;;;;;;;7.88;5.00;;;20.60;94.80;;;;;;5018002;28;20028;-84
2021/09/03 08:32:43;;;;;;;15.18;4.95;;;20.80;94.80;;;;;;5031310;28;20041;-82
2021/09/03 08:35:09;;;;;;;9.80;4.95;;;21.00;94.40;;;;;;5014610;28;20044;-80
2021/09/03 08:37:34;;;;;;;11.15;5.72;;;21.20;93.50;;;;;;5020664;28;20025;-79
2021/09/03 08:40:00;;;;;;;9.77;5.07;;;21.20;93.70;;;;;;5014166;28;20048;-81
2021/09/03 08:42:27;;;;;;;7.25;4.85;;;21.20;93.20;;;;;;5015113;28;20095;-79
2021/09/03 08:44:55;;;;;;;9.25;5.10;;;21.10;93.20;;;;;;5016061;28;20040;-81
2021/09/03 08:47:21;;;;;;;7.20;4.43;;;21.20;93.10;;;;;;5017389;28;20089;-83
2021/09/03 08:49:48;;;;;;;8.68;5.10;;;21.20;92.80;;;;;;5032916;28;20095;-82
2021/09/03 08:52:13;;;;;;;9.15;5.13;;;21.20;93.20;;;;;;5032055;28;20044;-80
2021/09/03 08:54:39;;;;;;;8.13;4.40;;;21.20;93.10;;;;;;5015356;28;20030;-83
2021/09/03 08:57:05;;;;;;;9.90;4.78;;;21.50;92.50;;;;;;5031077;28;20034;-80
2021/09/03 08:59:32;;;;;;;8.68;4.43;;;21.70;91.70;;;;;;5012936;28;20107;-80
2021/09/03 09:02:15;;;;;;;10.02;4.60;;;21.70;91.90;;;;;;5033371;28;20026;-82
2021/09/03 09:04:43;;;;;;;7.15;4.60;;;22.00;91.50;;;;;;5006926;28;20525;-81
2021/09/03 09:07:09;;;;;;;8.23;4.78;;;22.10;91.50;;;;;;5030303;28;20049;-83
2021/09/03 09:09:43;;;;;;;7.35;4.40;;;22.10;91.40;;;;;;5027684;28;20103;-84
2021/09/03 09:12:11;;;;;;;7.07;4.75;;;22.20;91.20;;;;;;5030074;28;20128;-81
2021/09/03 09:15:03;;;;;;;10.77;4.78;;;22.40;91.00;;;;;;5014949;28;20037;-82
2021/09/03 09:17:37;;;;;;;7.95;4.82;;;22.20;91.00;;;;;;5015941;28;20525;-82
2021/09/03 09:20:19;;;;;;;9.57;4.45;;;22.20;90.80;;;;;;5015469;28;20394;-82
2021/09/03 09:22:54;;;;;;;7.70;4.82;;;22.20;90.70;;;;;;5011517;28;20114;-81
2021/09/03 09:25:32;;;;;;;8.55;4.93;;;22.30;91.00;;;;;;5007496;28;20096;-79
2021/09/03 09:28:15;;;;;;;6.53;4.63;;;22.60;90.40;;;;;;5030560;28;20037;-82
2021/09/03 09:30:42;;;;;;;9.23;4.57;;;22.70;90.30;;;;;;5014197;28;20514;-80
2021/09/03 09:33:17;;;;;;;6.18;4.00;;;22.90;90.30;;;;;;5014516;28;20077;-80
2021/09/03 09:35:46;;;;;;;7.93;4.50;;;22.90;89.10;;;;;;5029856;28;20442;-83
2021/09/03 09:38:14;;;;;;;7.47;4.90;;;23.10;88.90;;;;;;5036317;28;20041;-81
2021/09/03 09:40:51;;;;;;;10.40;4.80;;;23.00;89.20;;;;;;5010640;28;20030;-82
2021/09/03 09:43:34;;;;;;;6.18;3.90;;;23.30;89.30;;;;;;5022161;28;20025;-80
2021/09/03 09:46:09;;;;;;;5.90;4.18;;;23.50;87.80;;;;;;5027298;28;20061;-80
2021/09/03 09:48:50;;;;;;;6.65;4.50;;;23.40;87.60;;;;;;5009847;28;20029;-80
2021/09/03 09:51:29;;;;;;;8.98;4.35;;;23.50;87.90;;;;;;5017433;28;20032;-80
2021/09/03 09:54:08;;;;;;;7.25;4.50;;;23.60;87.20;;;;;;5040167;28;20026;-80
2021/09/03 09:56:43;;;;;;;7.45;4.40;;;23.60;86.20;;;;;;5036705;28;20014;-80
2021/09/03 09:59:10;;;;;;;6.03;3.95;;;23.70;86.80;;;;;;5024327;28;20262;-81
2021/09/03 10:01:38;;;;;;;7.93;4.30;;;23.70;86.40;;;;;;5027974;28;20406;-79
2021/09/03 10:04:10;;;;;;;7.00;4.30;;;23.90;85.80;;;;;;5031845;28;20022;-79
2021/09/03 10:06:38;;;;;;;6.63;4.45;;;24.00;85.60;;;;;;5031708;28;20033;-80
2021/09/03 10:09:08;;;;;;;6.57;4.18;;;24.10;84.90;;;;;;5018659;28;20025;-80
2021/09/03 10:11:34;;;;;;;7.72;4.43;;;24.10;85.80;;;;;;5039716;28;20028;-80
2021/09/03 10:14:02;;;;;;;5.55;4.18;;;24.30;85.90;;;;;;5019200;28;20037;-80
2021/09/03 10:16:28;;;;;;;6.50;4.13;;;24.50;83.10;;;;;;5017341;28;20061;-81
2021/09/03 10:18:57;;;;;;;6.22;4.03;;;24.20;83.60;;;;;;5017517;28;20037;-79
2021/09/03 10:21:25;;;;;;;8.52;3.97;;;24.20;83.40;;;;;;5038497;28;20116;-78
2021/09/03 10:23:52;;;;;;;6.97;3.92;;;24.20;83.10;;;;;;5017988;28;20022;-79
2021/09/03 10:26:26;;;;;;;7.35;4.68;;;24.10;83.30;;;;;;5014741;28;20514;-78
2021/09/03 10:29:16;;;;;;;6.63;4.18;;;24.30;83.90;;;;;;5038817;28;20025;-79
2021/09/03 10:32:03;;;;;;;7.18;4.30;;;24.30;82.00;;;;;;5015859;28;20040;-79
2021/09/03 10:34:44;;;;;;;7.50;4.78;;;24.40;80.90;;;;;;5017332;28;20038;-78
2021/09/03 10:37:16;;;;;;;6.57;4.05;;;24.40;80.70;;;;;;5015865;28;20112;-81
2021/09/03 10:39:52;;;;;;;6.93;4.35;;;24.20;81.20;;;;;;5016907;28;20097;-79
2021/09/03 10:45:04;;;;;;;7.60;4.35;;;24.20;81.10;;;;;;5034870;28;20486;-78
2021/09/03 10:47:47;;;;;;;6.53;3.72;;;24.50;81.30;;;;;;5038445;28;20045;-83
2021/09/03 10:50:18;;;;;;;7.13;4.25;;;24.70;80.40;;;;;;5033634;28;20017;-82
2021/09/03 10:53:12;;;;;;;6.20;4.20;;;24.90;79.60;;;;;;5034395;28;20052;-83
2021/09/03 10:55:57;;;;;;;6.90;4.25;;;24.80;79.20;;;;;;5015264;28;20041;-81
2021/09/03 10:58:50;;;;;;;9.50;3.80;;;24.90;79.80;;;;;;5017427;28;20022;-79
2021/09/03 11:01:15;;;;;;;8.35;4.80;;;25.00;79.10;;;;;;5037781;28;20040;-81
2021/09/03 11:03:59;;;;;;;5.85;4.15;;;25.20;79.50;;;;;;5020006;28;20025;-80
2021/09/03 11:06:25;;;;;;;6.32;4.25;;;25.40;79.10;;;;;;5038660;28;20570;-79
2021/09/03 11:08:56;;;;;;;6.57;4.13;;;25.60;78.70;;;;;;5016202;28;20029;-80
2021/09/03 11:11:27;;;;;;;5.43;3.63;;;25.50;76.40;;;;;;5022756;28;20033;-80
2021/09/03 11:14:03;;;;;;;5.97;4.13;;;25.50;74.90;;;;;;5016442;28;20099;-79
2021/09/03 11:16:34;;;;;;;5.93;3.95;;;25.70;75.80;;;;;;5014350;28;20108;-78
2021/09/03 11:19:04;;;;;;;6.00;3.78;;;25.70;75.40;;;;;;5017854;28;20079;-80
2021/09/03 11:21:39;;;;;;;7.35;4.20;;;25.60;74.50;;;;;;5016565;28;20061;-79
2021/09/03 11:24:06;;;;;;;4.90;3.17;;;25.50;74.90;;;;;;5038689;28;20056;-78
2021/09/03 11:26:34;;;;;;;7.60;4.00;;;25.60;73.20;;;;;;5027334;28;20022;-80
2021/09/03 11:29:04;;;;;;;4.82;3.55;;;25.50;73.20;;;;;;5016116;28;20087;-80
2021/09/03 11:31:30;;;;;;;6.18;3.70;;;25.70;72.00;;;;;;5011737;28;20037;-80
2021/09/03 11:33:59;;;;;;;7.65;3.95;;;25.80;72.10;;;;;;5015345;28;20352;-79
2021/09/03 11:36:25;;;;;;;5.80;3.58;;;25.90;72.60;;;;;;5018267;28;20031;-81
2021/09/03 11:38:55;;;;;;;5.97;4.03;;;25.60;72.70;;;;;;5019705;28;20337;-79
2021/09/03 11:41:22;;;;;;;7.18;4.28;;;25.80;73.20;;;;;;5033476;28;20082;-79
2021/09/03 11:43:49;;;;;;;4.75;3.53;;;26.00;72.00;;;;;;5019219;28;20036;-78
2021/09/03 11:46:20;;;;;;;6.18;3.67;;;26.00;72.40;;;;;;5017725;28;20033;-79
2021/09/03 11:48:48;;;;;;;6.65;3.47;;;25.90;73.20;;;;;;5014769;28;20041;-80
2021/09/03 11:51:18;;;;;;;5.38;3.25;;;25.80;71.60;;;;;;5017246;28;20022;-79
2021/09/03 11:53:47;;;;;;;8.73;3.47;;;25.80;70.70;;;;;;5033616;28;20028;-76
2021/09/03 11:56:14;;;;;;;6.13;3.40;;;25.80;70.60;;;;;;5033486;28;20024;-80
2021/09/03 11:58:40;;;;;;;5.40;3.70;;;25.80;70.40;;;;;;5035867;28;20052;-78
2021/09/03 12:01:06;;;;;;;4.38;3.03;;;26.00;70.90;;;;;;5015978;28;20021;-80
2021/09/03 12:03:36;;;;;;;5.80;3.60;;;25.90;69.30;;;;;;5016845;28;20075;-78
2021/09/03 12:06:13;;;;;;;5.32;3.28;;;25.90;69.30;;;;;;5015421;28;20445;-79
2021/09/03 12:08:39;;;;;;;6.70;3.70;;;26.00;70.20;;;;;;5034326;28;20052;-80
2021/09/03 12:11:13;;;;;;;6.30;3.17;;;26.00;70.00;;;;;;5019227;28;20089;-80
2021/09/03 12:13:44;;;;;;;6.13;3.47;;;26.00;70.80;;;;;;5016207;28;20072;-80
2021/09/03 12:16:23;;;;;;;5.30;3.65;;;26.10;71.30;;;;;;5026928;28;20021;-80
2021/09/03 12:18:50;;;;;;;5.95;3.63;;;26.10;71.40;;;;;;5016243;28;20120;-78
2021/09/03 12:21:19;;;;;;;4.30;3.20;;;26.20;70.50;;;;;;5018552;28;20033;-81
2021/09/03 12:23:54;;;;;;;5.17;3.63;;;26.30;68.90;;;;;;5016880;28;20490;-79
2021/09/03 12:26:21;;;;;;;6.22;3.70;;;26.30;68.70;;;;;;5016940;28;20829;-80
2021/09/03 12:28:55;;;;;;;12.88;7.55;;;26.10;68.10;;;;;;5074279;28;20418;-81
2021/09/03 12:31:29;;;;;;;7.13;3.67;;;26.30;69.70;;;;;;5045160;28;20036;-79
2021/09/03 12:34:27;;;;;;;5.63;3.70;;;26.40;67.80;;;;;;5053701;28;20087;-80
2021/09/03 12:37:01;;;;;;;6.20;3.70;;;26.60;67.80;;;;;;5033169;28;20041;-81
2021/09/03 12:39:28;;;;;;;5.65;3.65;;;26.60;67.80;;;;;;5046157;28;20043;-80
2021/09/03 12:41:54;;;;;;;6.57;3.58;;;26.40;68.10;;;;;;5047355;28;20025;-79
2021/09/03 12:44:21;;;;;;;6.28;3.95;;;26.60;68.40;;;;;;5048217;28;20033;-78
2021/09/03 12:46:49;;;;;;;5.10;3.45;;;26.70;67.00;;;;;;5047756;28;20029;-80
2021/09/03 12:49:26;;;;;;;5.55;3.30;;;26.90;67.00;;;;;;5041220;28;20029;-78
2021/09/03 12:51:55;;;;;;;6.70;3.60;;;26.80;65.40;;;;;;5046940;28;20025;-80
2021/09/03 12:54:23;;;;;;;4.85;3.10;;;26.60;63.80;;;;;;5055313;28;20017;-76
2021/09/03 12:56:49;;;;;;;5.18;3.45;;;26.60;63.40;;;;;;5051573;28;20036;-79
2021/09/03 12:59:15;;;;;;;4.88;3.25;;;26.90;64.20;;;;;;5047228;28;20033;-79
2021/09/03 13:01:41;;;;;;;4.95;3.60;;;26.80;64.70;;;;;;5041619;28;20033;-79
2021/09/03 13:04:16;;;;;;;6.80;3.17;;;27.00;65.20;;;;;;5049880;28;20052;-80
2021/09/03 13:06:45;;;;;;;6.78;3.60;;;26.90;64.50;;;;;;5051713;28;20029;-77
2021/09/03 13:09:11;;;;;;;6.22;3.42;;;27.00;64.70;;;;;;5049145;28;20029;-78
2021/09/03 13:11:37;;;;;;;4.78;3.28;;;27.20;62.20;;;;;;5046580;28;20029;-79
2021/09/03 13:14:03;;;;;;;5.22;3.30;;;27.30;61.60;;;;;;5047613;28;20033;-79